sensor_id;sensor_type;location;lat;lon;timestamp;P1;durP1;ratioP1;P2;durP2;ratioP2
41532;SDS011;27262;-35.248;149.138;2023-05-19T00:02:02;0.90;;;0.70;;
41532;SDS011;27262;-35.248;149.138;2023-05-19T00:04:33;0.70;;;0.60;;
41532;SDS011;27262;-35.248;149.138;2023-05-19T00:07:04;0.65;;;0.65;;
41532;SDS011;27262;-35.248;149.138;2023-05-19T00:09:38;1.67;;;0.70;;
41532;SDS011;27262;-35.248;149.138;2023-05-19T00:12:09;1.15;;;0.88;;
41532;SDS011;27262;-35.248;149.138;2023-05-19T00:14:40;2.60;;;0.63;;
41532;SDS011;27262;-35.248;149.138;2023-05-19T00:17:10;1.00;;;0.70;;
41532;SDS011;27262;-35.248;149.138;2023-05-19T00:19:41;1.38;;;0.60;;
41532;SDS011;27262;-35.248;149.138;2023-05-19T00:22:13;0.77;;;0.65;;
41532;SDS011;27262;-35.248;149.138;2023-05-19T00:24:44;0.70;;;0.50;;
41532;SDS011;27262;-35.248;149.138;2023-05-19T00:27:14;2.65;;;0.82;;
41532;SDS011;27262;-35.248;149.138;2023-05-19T00:29:44;0.60;;;0.50;;
41532;SDS011;27262;-35.248;149.138;2023-05-19T00:32:14;0.77;;;0.60;;
41532;SDS011;27262;-35.248;149.138;2023-05-19T00:34:45;1.70;;;0.70;;
41532;SDS011;27262;-35.248;149.138;2023-05-19T00:37:16;2.05;;;0.60;;
41532;SDS011;27262;-35.248;149.138;2023-05-19T00:39:46;1.30;;;0.73;;
41532;SDS011;27262;-35.248;149.138;2023-05-19T00:42:17;0.75;;;0.70;;
41532;SDS011;27262;-35.248;149.138;2023-05-19T00:44:49;1.02;;;0.50;;
41532;SDS011;27262;-35.248;149.138;2023-05-19T00:47:19;4.47;;;1.13;;
41532;SDS011;27262;-35.248;149.138;2023-05-19T00:49:50;3.08;;;1.00;;
41532;SDS011;27262;-35.248;149.138;2023-05-19T00:52:20;2.67;;;0.88;;
41532;SDS011;27262;-35.248;149.138;2023-05-19T00:54:50;1.08;;;0.60;;
41532;SDS011;27262;-35.248;149.138;2023-05-19T00:57:21;2.38;;;0.75;;
41532;SDS011;27262;-35.248;149.138;2023-05-19T00:59:53;1.45;;;0.60;;
41532;SDS011;27262;-35.248;149.138;2023-05-19T01:02:24;0.50;;;0.47;;
41532;SDS011;27262;-35.248;149.138;2023-05-19T01:04:57;2.53;;;0.82;;
41532;SDS011;27262;-35.248;149.138;2023-05-19T01:07:28;0.63;;;0.60;;
41532;SDS011;27262;-35.248;149.138;2023-05-19T01:09:58;2.47;;;0.60;;
41532;SDS011;27262;-35.248;149.138;2023-05-19T01:12:29;1.52;;;0.75;;
41532;SDS011;27262;-35.248;149.138;2023-05-19T01:15:00;1.70;;;0.88;;
41532;SDS011;27262;-35.248;149.138;2023-05-19T01:18:21;1.25;;;0.65;;
41532;SDS011;27262;-35.248;149.138;2023-05-19T01:20:36;3.17;;;0.80;;
41532;SDS011;27262;-35.248;149.138;2023-05-19T01:26:24;1.00;;;0.70;;
41532;SDS011;27262;-35.248;149.138;2023-05-19T01:32:29;3.58;;;0.80;;
41532;SDS011;27262;-35.248;149.138;2023-05-19T01:35:01;2.05;;;0.80;;
41532;SDS011;27262;-35.248;149.138;2023-05-19T01:37:33;0.95;;;0.70;;
41532;SDS011;27262;-35.248;149.138;2023-05-19T01:40:06;1.08;;;0.52;;
41532;SDS011;27262;-35.248;149.138;2023-05-19T01:42:38;2.83;;;0.70;;
41532;SDS011;27262;-35.248;149.138;2023-05-19T01:45:09;1.45;;;0.40;;
41532;SDS011;27262;-35.248;149.138;2023-05-19T01:47:41;1.00;;;0.52;;
41532;SDS011;27262;-35.248;149.138;2023-05-19T01:50:12;2.72;;;0.80;;
41532;SDS011;27262;-35.248;149.138;2023-05-19T01:52:43;0.88;;;0.73;;
41532;SDS011;27262;-35.248;149.138;2023-05-19T01:55:14;0.45;;;0.45;;
41532;SDS011;27262;-35.248;149.138;2023-05-19T01:57:57;1.00;;;0.70;;
41532;SDS011;27262;-35.248;149.138;2023-05-19T02:06:29;7.28;;;1.20;;
41532;SDS011;27262;-35.248;149.138;2023-05-19T02:09:24;2.92;;;0.73;;
41532;SDS011;27262;-35.248;149.138;2023-05-19T02:14:44;2.63;;;0.80;;
41532;SDS011;27262;-35.248;149.138;2023-05-19T02:17:19;2.47;;;0.60;;
41532;SDS011;27262;-35.248;149.138;2023-05-19T02:19:51;1.10;;;0.50;;
41532;SDS011;27262;-35.248;149.138;2023-05-19T02:22:21;1.48;;;0.75;;
41532;SDS011;27262;-35.248;149.138;2023-05-19T02:24:52;1.90;;;0.68;;
41532;SDS011;27262;-35.248;149.138;2023-05-19T02:27:24;0.80;;;0.50;;
41532;SDS011;27262;-35.248;149.138;2023-05-19T02:29:54;0.50;;;0.50;;
41532;SDS011;27262;-35.248;149.138;2023-05-19T02:32:25;4.13;;;0.60;;
41532;SDS011;27262;-35.248;149.138;2023-05-19T02:34:55;1.10;;;0.52;;
41532;SDS011;27262;-35.248;149.138;2023-05-19T02:37:25;2.78;;;0.68;;
41532;SDS011;27262;-35.248;149.138;2023-05-19T02:39:56;0.68;;;0.57;;
41532;SDS011;27262;-35.248;149.138;2023-05-19T02:42:27;2.08;;;0.95;;
41532;SDS011;27262;-35.248;149.138;2023-05-19T02:44:58;3.85;;;0.82;;
41532;SDS011;27262;-35.248;149.138;2023-05-19T02:47:29;2.72;;;0.80;;
41532;SDS011;27262;-35.248;149.138;2023-05-19T02:50:03;5.85;;;1.00;;
41532;SDS011;27262;-35.248;149.138;2023-05-19T02:52:34;12.50;;;1.70;;
41532;SDS011;27262;-35.248;149.138;2023-05-19T02:55:04;6.75;;;1.25;;
41532;SDS011;27262;-35.248;149.138;2023-05-19T02:57:35;9.35;;;0.90;;
41532;SDS011;27262;-35.248;149.138;2023-05-19T03:00:05;6.65;;;1.10;;
41532;SDS011;27262;-35.248;149.138;2023-05-19T03:02:36;3.75;;;1.27;;
41532;SDS011;27262;-35.248;149.138;2023-05-19T03:05:07;2.38;;;1.20;;
41532;SDS011;27262;-35.248;149.138;2023-05-19T03:07:38;2.20;;;1.20;;
41532;SDS011;27262;-35.248;149.138;2023-05-19T03:10:09;2.17;;;1.40;;
41532;SDS011;27262;-35.248;149.138;2023-05-19T03:12:57;6.03;;;1.23;;
41532;SDS011;27262;-35.248;149.138;2023-05-19T03:15:47;3.90;;;1.10;;
41532;SDS011;27262;-35.248;149.138;2023-05-19T03:18:37;2.60;;;1.42;;
41532;SDS011;27262;-35.248;149.138;2023-05-19T03:21:07;2.22;;;1.23;;
41532;SDS011;27262;-35.248;149.138;2023-05-19T03:23:38;4.45;;;1.10;;
41532;SDS011;27262;-35.248;149.138;2023-05-19T03:26:09;2.30;;;0.90;;
41532;SDS011;27262;-35.248;149.138;2023-05-19T03:28:39;2.47;;;1.73;;
41532;SDS011;27262;-35.248;149.138;2023-05-19T03:31:10;2.10;;;1.08;;
41532;SDS011;27262;-35.248;149.138;2023-05-19T03:33:40;1.42;;;1.33;;
41532;SDS011;27262;-35.248;149.138;2023-05-19T03:36:11;4.43;;;1.70;;
41532;SDS011;27262;-35.248;149.138;2023-05-19T03:38:41;2.47;;;1.25;;
41532;SDS011;27262;-35.248;149.138;2023-05-19T03:41:12;2.20;;;1.20;;
41532;SDS011;27262;-35.248;149.138;2023-05-19T03:43:43;3.42;;;1.85;;
41532;SDS011;27262;-35.248;149.138;2023-05-19T03:46:13;1.42;;;1.33;;
41532;SDS011;27262;-35.248;149.138;2023-05-19T03:48:44;1.52;;;1.42;;
41532;SDS011;27262;-35.248;149.138;2023-05-19T03:51:14;3.45;;;1.50;;
41532;SDS011;27262;-35.248;149.138;2023-05-19T03:53:45;1.77;;;1.50;;
41532;SDS011;27262;-35.248;149.138;2023-05-19T03:56:16;2.40;;;1.90;;
41532;SDS011;27262;-35.248;149.138;2023-05-19T03:58:48;2.28;;;1.80;;
41532;SDS011;27262;-35.248;149.138;2023-05-19T04:01:18;1.73;;;1.55;;
41532;SDS011;27262;-35.248;149.138;2023-05-19T04:03:48;2.17;;;1.58;;
41532;SDS011;27262;-35.248;149.138;2023-05-19T04:06:19;2.55;;;1.90;;
41532;SDS011;27262;-35.248;149.138;2023-05-19T04:08:49;1.90;;;1.50;;
41532;SDS011;27262;-35.248;149.138;2023-05-19T04:11:19;1.75;;;1.40;;
41532;SDS011;27262;-35.248;149.138;2023-05-19T04:13:50;3.00;;;1.75;;
41532;SDS011;27262;-35.248;149.138;2023-05-19T04:16:20;2.78;;;1.77;;
41532;SDS011;27262;-35.248;149.138;2023-05-19T04:18:51;1.60;;;1.30;;
41532;SDS011;27262;-35.248;149.138;2023-05-19T04:21:21;2.05;;;1.60;;
41532;SDS011;27262;-35.248;149.138;2023-05-19T04:23:52;7.72;;;1.42;;
41532;SDS011;27262;-35.248;149.138;2023-05-19T04:26:22;2.05;;;1.58;;
41532;SDS011;27262;-35.248;149.138;2023-05-19T04:28:54;3.80;;;1.40;;
41532;SDS011;27262;-35.248;149.138;2023-05-19T04:31:24;2.65;;;1.52;;
41532;SDS011;27262;-35.248;149.138;2023-05-19T04:33:56;1.60;;;1.38;;
41532;SDS011;27262;-35.248;149.138;2023-05-19T04:36:29;2.28;;;1.63;;
41532;SDS011;27262;-35.248;149.138;2023-05-19T04:39:01;2.35;;;1.65;;
41532;SDS011;27262;-35.248;149.138;2023-05-19T04:41:37;1.77;;;1.35;;
41532;SDS011;27262;-35.248;149.138;2023-05-19T04:44:07;1.67;;;1.30;;
41532;SDS011;27262;-35.248;149.138;2023-05-19T04:46:38;1.70;;;1.60;;
41532;SDS011;27262;-35.248;149.138;2023-05-19T04:49:10;2.20;;;1.42;;
41532;SDS011;27262;-35.248;149.138;2023-05-19T04:51:41;4.63;;;1.52;;
41532;SDS011;27262;-35.248;149.138;2023-05-19T04:54:13;1.40;;;1.23;;
41532;SDS011;27262;-35.248;149.138;2023-05-19T04:56:44;1.85;;;1.40;;
41532;SDS011;27262;-35.248;149.138;2023-05-19T04:59:14;4.07;;;1.60;;
41532;SDS011;27262;-35.248;149.138;2023-05-19T05:01:45;1.50;;;1.27;;
41532;SDS011;27262;-35.248;149.138;2023-05-19T05:04:15;3.42;;;1.33;;
41532;SDS011;27262;-35.248;149.138;2023-05-19T05:06:46;1.23;;;1.00;;
41532;SDS011;27262;-35.248;149.138;2023-05-19T05:09:17;3.58;;;1.10;;
41532;SDS011;27262;-35.248;149.138;2023-05-19T05:11:48;2.25;;;1.30;;
41532;SDS011;27262;-35.248;149.138;2023-05-19T05:14:19;1.40;;;1.10;;
41532;SDS011;27262;-35.248;149.138;2023-05-19T05:16:49;2.00;;;1.15;;
41532;SDS011;27262;-35.248;149.138;2023-05-19T05:19:20;3.33;;;1.05;;
41532;SDS011;27262;-35.248;149.138;2023-05-19T05:21:51;1.27;;;1.17;;
41532;SDS011;27262;-35.248;149.138;2023-05-19T05:24:21;2.50;;;1.35;;
41532;SDS011;27262;-35.248;149.138;2023-05-19T05:26:52;3.03;;;0.98;;
41532;SDS011;27262;-35.248;149.138;2023-05-19T05:29:22;1.52;;;0.88;;
41532;SDS011;27262;-35.248;149.138;2023-05-19T05:31:53;0.85;;;0.75;;
41532;SDS011;27262;-35.248;149.138;2023-05-19T05:34:23;0.90;;;0.82;;
41532;SDS011;27262;-35.248;149.138;2023-05-19T05:36:54;0.90;;;0.90;;
41532;SDS011;27262;-35.248;149.138;2023-05-19T05:39:24;2.75;;;1.27;;
41532;SDS011;27262;-35.248;149.138;2023-05-19T05:41:55;1.80;;;1.10;;
41532;SDS011;27262;-35.248;149.138;2023-05-19T05:44:25;1.33;;;1.05;;
41532;SDS011;27262;-35.248;149.138;2023-05-19T05:46:56;1.55;;;1.02;;
41532;SDS011;27262;-35.248;149.138;2023-05-19T05:49:26;3.60;;;1.20;;
41532;SDS011;27262;-35.248;149.138;2023-05-19T05:51:57;1.30;;;0.95;;
41532;SDS011;27262;-35.248;149.138;2023-05-19T05:54:32;1.00;;;0.90;;
41532;SDS011;27262;-35.248;149.138;2023-05-19T05:57:03;2.90;;;1.23;;
41532;SDS011;27262;-35.248;149.138;2023-05-19T05:59:33;1.27;;;0.95;;
41532;SDS011;27262;-35.248;149.138;2023-05-19T06:02:04;2.33;;;1.30;;
41532;SDS011;27262;-35.248;149.138;2023-05-19T06:04:34;1.98;;;1.10;;
41532;SDS011;27262;-35.248;149.138;2023-05-19T06:07:05;1.00;;;0.90;;
41532;SDS011;27262;-35.248;149.138;2023-05-19T06:09:35;2.08;;;1.10;;
41532;SDS011;27262;-35.248;149.138;2023-05-19T06:12:24;3.42;;;1.23;;
41532;SDS011;27262;-35.248;149.138;2023-05-19T06:15:14;2.50;;;1.25;;
41532;SDS011;27262;-35.248;149.138;2023-05-19T06:18:03;1.90;;;1.10;;
41532;SDS011;27262;-35.248;149.138;2023-05-19T06:20:33;2.10;;;0.90;;
41532;SDS011;27262;-35.248;149.138;2023-05-19T06:23:04;1.38;;;0.90;;
41532;SDS011;27262;-35.248;149.138;2023-05-19T06:25:34;1.13;;;1.02;;
41532;SDS011;27262;-35.248;149.138;2023-05-19T06:28:05;1.88;;;1.17;;
41532;SDS011;27262;-35.248;149.138;2023-05-19T06:30:35;1.65;;;1.08;;
41532;SDS011;27262;-35.248;149.138;2023-05-19T06:33:05;1.35;;;1.23;;
41532;SDS011;27262;-35.248;149.138;2023-05-19T06:35:36;4.47;;;1.20;;
41532;SDS011;27262;-35.248;149.138;2023-05-19T06:38:07;1.33;;;1.17;;
41532;SDS011;27262;-35.248;149.138;2023-05-19T06:40:39;2.67;;;1.17;;
41532;SDS011;27262;-35.248;149.138;2023-05-19T06:43:14;1.50;;;1.30;;
41532;SDS011;27262;-35.248;149.138;2023-05-19T06:45:44;2.20;;;1.10;;
41532;SDS011;27262;-35.248;149.138;2023-05-19T06:48:14;1.10;;;0.93;;
41532;SDS011;27262;-35.248;149.138;2023-05-19T06:50:45;2.78;;;1.20;;
41532;SDS011;27262;-35.248;149.138;2023-05-19T06:53:16;2.10;;;1.20;;
41532;SDS011;27262;-35.248;149.138;2023-05-19T06:55:48;0.90;;;0.90;;
41532;SDS011;27262;-35.248;149.138;2023-05-19T06:58:26;1.88;;;1.33;;
41532;SDS011;27262;-35.248;149.138;2023-05-19T07:00:56;1.17;;;1.05;;
41532;SDS011;27262;-35.248;149.138;2023-05-19T07:03:27;1.25;;;1.10;;
41532;SDS011;27262;-35.248;149.138;2023-05-19T07:05:58;1.98;;;1.08;;
41532;SDS011;27262;-35.248;149.138;2023-05-19T07:08:30;1.70;;;1.20;;
41532;SDS011;27262;-35.248;149.138;2023-05-19T07:11:20;1.90;;;1.23;;
41532;SDS011;27262;-35.248;149.138;2023-05-19T07:14:09;1.40;;;1.17;;
41532;SDS011;27262;-35.248;149.138;2023-05-19T07:16:58;1.45;;;1.10;;
41532;SDS011;27262;-35.248;149.138;2023-05-19T07:19:29;2.45;;;1.30;;
41532;SDS011;27262;-35.248;149.138;2023-05-19T07:21:59;1.33;;;0.90;;
41532;SDS011;27262;-35.248;149.138;2023-05-19T07:24:30;1.45;;;1.00;;
41532;SDS011;27262;-35.248;149.138;2023-05-19T07:27:00;1.20;;;1.00;;
41532;SDS011;27262;-35.248;149.138;2023-05-19T07:29:31;1.35;;;1.00;;
41532;SDS011;27262;-35.248;149.138;2023-05-19T07:32:01;3.08;;;1.25;;
41532;SDS011;27262;-35.248;149.138;2023-05-19T07:34:31;1.15;;;0.95;;
41532;SDS011;27262;-35.248;149.138;2023-05-19T07:37:02;1.67;;;1.17;;
41532;SDS011;27262;-35.248;149.138;2023-05-19T07:39:33;1.35;;;1.20;;
41532;SDS011;27262;-35.248;149.138;2023-05-19T07:42:22;2.28;;;1.30;;
41532;SDS011;27262;-35.248;149.138;2023-05-19T07:44:55;3.83;;;0.90;;
41532;SDS011;27262;-35.248;149.138;2023-05-19T07:47:26;1.30;;;1.15;;
41532;SDS011;27262;-35.248;149.138;2023-05-19T07:49:57;1.05;;;0.70;;
41532;SDS011;27262;-35.248;149.138;2023-05-19T07:52:27;1.50;;;0.95;;
41532;SDS011;27262;-35.248;149.138;2023-05-19T07:54:58;3.13;;;0.95;;
41532;SDS011;27262;-35.248;149.138;2023-05-19T07:57:28;1.25;;;0.90;;
41532;SDS011;27262;-35.248;149.138;2023-05-19T07:59:59;1.65;;;1.10;;
41532;SDS011;27262;-35.248;149.138;2023-05-19T08:02:30;2.55;;;1.38;;
41532;SDS011;27262;-35.248;149.138;2023-05-19T08:05:00;3.40;;;1.08;;
41532;SDS011;27262;-35.248;149.138;2023-05-19T08:07:31;1.23;;;0.90;;
41532;SDS011;27262;-35.248;149.138;2023-05-19T08:10:02;2.72;;;1.00;;
41532;SDS011;27262;-35.248;149.138;2023-05-19T08:12:33;2.95;;;0.80;;
41532;SDS011;27262;-35.248;149.138;2023-05-19T08:15:03;1.63;;;0.95;;
41532;SDS011;27262;-35.248;149.138;2023-05-19T08:17:34;2.53;;;1.02;;
41532;SDS011;27262;-35.248;149.138;2023-05-19T08:20:05;1.75;;;1.00;;
41532;SDS011;27262;-35.248;149.138;2023-05-19T08:22:37;1.70;;;0.88;;
41532;SDS011;27262;-35.248;149.138;2023-05-19T08:25:08;1.58;;;1.08;;
41532;SDS011;27262;-35.248;149.138;2023-05-19T08:27:39;1.10;;;0.95;;
41532;SDS011;27262;-35.248;149.138;2023-05-19T08:30:09;1.08;;;0.73;;
41532;SDS011;27262;-35.248;149.138;2023-05-19T08:32:40;1.15;;;0.93;;
41532;SDS011;27262;-35.248;149.138;2023-05-19T08:35:10;1.45;;;0.90;;
41532;SDS011;27262;-35.248;149.138;2023-05-19T08:37:41;0.82;;;0.70;;
41532;SDS011;27262;-35.248;149.138;2023-05-19T08:40:14;2.38;;;0.98;;
41532;SDS011;27262;-35.248;149.138;2023-05-19T08:42:46;2.25;;;1.20;;
41532;SDS011;27262;-35.248;149.138;2023-05-19T08:45:16;2.38;;;1.00;;
41532;SDS011;27262;-35.248;149.138;2023-05-19T08:47:47;3.50;;;1.10;;
41532;SDS011;27262;-35.248;149.138;2023-05-19T08:50:23;1.20;;;1.10;;
41532;SDS011;27262;-35.248;149.138;2023-05-19T08:53:09;2.78;;;1.20;;
41532;SDS011;27262;-35.248;149.138;2023-05-19T08:56:01;1.50;;;0.93;;
41532;SDS011;27262;-35.248;149.138;2023-05-19T08:58:38;2.13;;;1.02;;
41532;SDS011;27262;-35.248;149.138;2023-05-19T09:01:12;2.38;;;0.82;;
41532;SDS011;27262;-35.248;149.138;2023-05-19T09:03:45;2.15;;;1.30;;
41532;SDS011;27262;-35.248;149.138;2023-05-19T09:06:17;2.00;;;0.95;;
41532;SDS011;27262;-35.248;149.138;2023-05-19T09:08:49;1.60;;;1.00;;
41532;SDS011;27262;-35.248;149.138;2023-05-19T09:11:20;1.23;;;0.80;;
41532;SDS011;27262;-35.248;149.138;2023-05-19T09:13:51;1.58;;;0.93;;
41532;SDS011;27262;-35.248;149.138;2023-05-19T09:16:23;1.05;;;0.95;;
41532;SDS011;27262;-35.248;149.138;2023-05-19T09:18:56;1.40;;;1.20;;
41532;SDS011;27262;-35.248;149.138;2023-05-19T09:21:33;1.30;;;0.95;;
41532;SDS011;27262;-35.248;149.138;2023-05-19T09:24:04;2.35;;;1.02;;
41532;SDS011;27262;-35.248;149.138;2023-05-19T09:26:39;1.80;;;0.95;;
41532;SDS011;27262;-35.248;149.138;2023-05-19T09:29:11;1.65;;;1.23;;
41532;SDS011;27262;-35.248;149.138;2023-05-19T09:31:47;2.28;;;1.10;;
41532;SDS011;27262;-35.248;149.138;2023-05-19T09:34:21;1.38;;;1.00;;
41532;SDS011;27262;-35.248;149.138;2023-05-19T09:36:54;1.45;;;1.35;;
41532;SDS011;27262;-35.248;149.138;2023-05-19T09:39:27;1.38;;;1.13;;
41532;SDS011;27262;-35.248;149.138;2023-05-19T09:41:59;2.42;;;1.27;;
41532;SDS011;27262;-35.248;149.138;2023-05-19T09:44:34;1.30;;;1.20;;
41532;SDS011;27262;-35.248;149.138;2023-05-19T09:47:05;2.28;;;1.33;;
41532;SDS011;27262;-35.248;149.138;2023-05-19T09:49:38;3.80;;;1.38;;
41532;SDS011;27262;-35.248;149.138;2023-05-19T09:52:16;2.80;;;1.58;;
41532;SDS011;27262;-35.248;149.138;2023-05-19T09:54:47;4.38;;;1.15;;
41532;SDS011;27262;-35.248;149.138;2023-05-19T09:57:23;4.82;;;1.38;;
41532;SDS011;27262;-35.248;149.138;2023-05-19T09:59:55;1.90;;;1.25;;
41532;SDS011;27262;-35.248;149.138;2023-05-19T10:02:29;2.10;;;1.40;;
41532;SDS011;27262;-35.248;149.138;2023-05-19T10:05:01;1.40;;;1.30;;
41532;SDS011;27262;-35.248;149.138;2023-05-19T10:07:33;3.53;;;1.30;;
41532;SDS011;27262;-35.248;149.138;2023-05-19T10:10:10;1.50;;;1.40;;
41532;SDS011;27262;-35.248;149.138;2023-05-19T10:12:41;1.60;;;1.50;;
41532;SDS011;27262;-35.248;149.138;2023-05-19T10:15:14;1.90;;;1.38;;
41532;SDS011;27262;-35.248;149.138;2023-05-19T10:17:48;2.40;;;1.88;;
41532;SDS011;27262;-35.248;149.138;2023-05-19T10:20:20;2.00;;;1.60;;
41532;SDS011;27262;-35.248;149.138;2023-05-19T10:22:50;2.83;;;1.00;;
41532;SDS011;27262;-35.248;149.138;2023-05-19T10:25:20;1.63;;;1.17;;
41532;SDS011;27262;-35.248;149.138;2023-05-19T10:27:56;1.60;;;1.15;;
41532;SDS011;27262;-35.248;149.138;2023-05-19T10:30:40;2.00;;;1.50;;
41532;SDS011;27262;-35.248;149.138;2023-05-19T10:33:16;1.33;;;1.08;;
41532;SDS011;27262;-35.248;149.138;2023-05-19T10:38:52;1.30;;;1.20;;
41532;SDS011;27262;-35.248;149.138;2023-05-19T10:46:59;1.52;;;1.40;;
41532;SDS011;27262;-35.248;149.138;2023-05-19T10:49:32;1.70;;;1.30;;
41532;SDS011;27262;-35.248;149.138;2023-05-19T10:52:17;1.75;;;1.30;;
41532;SDS011;27262;-35.248;149.138;2023-05-19T10:54:50;1.60;;;1.30;;
41532;SDS011;27262;-35.248;149.138;2023-05-19T10:57:25;1.42;;;1.30;;
41532;SDS011;27262;-35.248;149.138;2023-05-19T10:59:58;2.63;;;1.15;;
41532;SDS011;27262;-35.248;149.138;2023-05-19T11:02:42;1.33;;;1.10;;
41532;SDS011;27262;-35.248;149.138;2023-05-19T11:05:13;1.30;;;1.13;;
41532;SDS011;27262;-35.248;149.138;2023-05-19T11:07:58;1.73;;;1.33;;
41532;SDS011;27262;-35.248;149.138;2023-05-19T11:10:32;2.65;;;1.38;;
41532;SDS011;27262;-35.248;149.138;2023-05-19T11:13:03;1.58;;;1.10;;
41532;SDS011;27262;-35.248;149.138;2023-05-19T11:15:34;1.55;;;1.00;;
41532;SDS011;27262;-35.248;149.138;2023-05-19T11:18:05;1.10;;;1.00;;
41532;SDS011;27262;-35.248;149.138;2023-05-19T11:20:35;1.10;;;1.00;;
41532;SDS011;27262;-35.248;149.138;2023-05-19T11:23:15;1.20;;;1.00;;
41532;SDS011;27262;-35.248;149.138;2023-05-19T11:25:49;1.10;;;1.00;;
41532;SDS011;27262;-35.248;149.138;2023-05-19T11:58:26;6.28;;;1.67;;
41532;SDS011;27262;-35.248;149.138;2023-05-19T12:01:01;2.00;;;1.35;;
41532;SDS011;27262;-35.248;149.138;2023-05-19T12:03:32;3.03;;;1.60;;
41532;SDS011;27262;-35.248;149.138;2023-05-19T12:06:03;3.35;;;1.50;;
41532;SDS011;27262;-35.248;149.138;2023-05-19T12:08:35;5.25;;;1.70;;
41532;SDS011;27262;-35.248;149.138;2023-05-19T12:11:06;4.90;;;1.50;;
41532;SDS011;27262;-35.248;149.138;2023-05-19T12:13:36;3.20;;;1.75;;
41532;SDS011;27262;-35.248;149.138;2023-05-19T12:16:08;2.95;;;1.60;;
41532;SDS011;27262;-35.248;149.138;2023-05-19T12:18:38;2.90;;;1.77;;
41532;SDS011;27262;-35.248;149.138;2023-05-19T12:21:09;2.53;;;2.10;;
41532;SDS011;27262;-35.248;149.138;2023-05-19T12:23:40;2.10;;;1.90;;
41532;SDS011;27262;-35.248;149.138;2023-05-19T12:26:10;2.08;;;1.80;;
41532;SDS011;27262;-35.248;149.138;2023-05-19T12:28:43;3.90;;;1.77;;
41532;SDS011;27262;-35.248;149.138;2023-05-19T12:31:14;2.33;;;2.00;;
41532;SDS011;27262;-35.248;149.138;2023-05-19T12:33:47;4.05;;;2.03;;
41532;SDS011;27262;-35.248;149.138;2023-05-19T12:36:22;5.18;;;1.63;;
41532;SDS011;27262;-35.248;149.138;2023-05-19T12:38:53;2.53;;;1.85;;
41532;SDS011;27262;-35.248;149.138;2023-05-19T12:41:24;1.70;;;1.60;;
41532;SDS011;27262;-35.248;149.138;2023-05-19T12:43:57;2.75;;;2.03;;
41532;SDS011;27262;-35.248;149.138;2023-05-19T12:46:27;2.22;;;1.83;;
41532;SDS011;27262;-35.248;149.138;2023-05-19T12:49:01;2.70;;;1.33;;
41532;SDS011;27262;-35.248;149.138;2023-05-19T12:51:32;1.70;;;1.45;;
41532;SDS011;27262;-35.248;149.138;2023-05-19T12:54:04;2.08;;;1.55;;
41532;SDS011;27262;-35.248;149.138;2023-05-19T12:56:35;3.15;;;1.52;;
41532;SDS011;27262;-35.248;149.138;2023-05-19T12:59:05;1.77;;;1.40;;
41532;SDS011;27262;-35.248;149.138;2023-05-19T13:01:35;2.85;;;1.45;;
41532;SDS011;27262;-35.248;149.138;2023-05-19T13:04:06;1.60;;;1.42;;
41532;SDS011;27262;-35.248;149.138;2023-05-19T13:06:37;2.65;;;1.42;;
41532;SDS011;27262;-35.248;149.138;2023-05-19T13:09:09;1.65;;;1.55;;
41532;SDS011;27262;-35.248;149.138;2023-05-19T13:11:42;1.58;;;1.38;;
41532;SDS011;27262;-35.248;149.138;2023-05-19T13:14:18;2.90;;;1.65;;
41532;SDS011;27262;-35.248;149.138;2023-05-19T13:16:49;1.70;;;1.52;;
41532;SDS011;27262;-35.248;149.138;2023-05-19T13:19:20;1.60;;;1.33;;
41532;SDS011;27262;-35.248;149.138;2023-05-19T13:21:52;1.67;;;1.38;;
41532;SDS011;27262;-35.248;149.138;2023-05-19T13:24:22;1.38;;;1.27;;
41532;SDS011;27262;-35.248;149.138;2023-05-19T13:26:52;2.08;;;1.42;;
41532;SDS011;27262;-35.248;149.138;2023-05-19T13:29:23;1.38;;;1.25;;
41532;SDS011;27262;-35.248;149.138;2023-05-19T13:31:55;1.50;;;1.23;;
41532;SDS011;27262;-35.248;149.138;2023-05-19T13:34:27;2.45;;;1.20;;
41532;SDS011;27262;-35.248;149.138;2023-05-19T13:36:58;2.38;;;1.30;;
41532;SDS011;27262;-35.248;149.138;2023-05-19T13:39:28;1.23;;;1.10;;
41532;SDS011;27262;-35.248;149.138;2023-05-19T13:41:59;1.42;;;1.20;;
41532;SDS011;27262;-35.248;149.138;2023-05-19T13:44:29;1.00;;;0.90;;
41532;SDS011;27262;-35.248;149.138;2023-05-19T13:47:00;1.13;;;0.82;;
41532;SDS011;27262;-35.248;149.138;2023-05-19T13:49:31;1.83;;;1.33;;
41532;SDS011;27262;-35.248;149.138;2023-05-19T13:52:01;1.20;;;1.10;;
41532;SDS011;27262;-35.248;149.138;2023-05-19T13:54:32;1.92;;;1.52;;
41532;SDS011;27262;-35.248;149.138;2023-05-19T13:57:03;1.10;;;1.00;;
41532;SDS011;27262;-35.248;149.138;2023-05-19T13:59:34;1.27;;;1.00;;
41532;SDS011;27262;-35.248;149.138;2023-05-19T14:02:19;1.50;;;1.40;;
41532;SDS011;27262;-35.248;149.138;2023-05-19T14:04:49;1.33;;;1.13;;
41532;SDS011;27262;-35.248;149.138;2023-05-19T14:07:19;1.20;;;1.10;;
41532;SDS011;27262;-35.248;149.138;2023-05-19T14:09:50;0.80;;;0.80;;
41532;SDS011;27262;-35.248;149.138;2023-05-19T14:12:21;1.90;;;1.20;;
41532;SDS011;27262;-35.248;149.138;2023-05-19T14:15:05;2.63;;;1.15;;
41532;SDS011;27262;-35.248;149.138;2023-05-19T14:17:37;2.80;;;1.25;;
41532;SDS011;27262;-35.248;149.138;2023-05-19T14:20:08;1.45;;;1.20;;
41532;SDS011;27262;-35.248;149.138;2023-05-19T14:22:39;1.20;;;1.10;;
41532;SDS011;27262;-35.248;149.138;2023-05-19T14:25:09;1.75;;;1.40;;
41532;SDS011;27262;-35.248;149.138;2023-05-19T14:27:39;1.08;;;0.98;;
41532;SDS011;27262;-35.248;149.138;2023-05-19T14:30:10;1.40;;;1.30;;
41532;SDS011;27262;-35.248;149.138;2023-05-19T14:32:40;1.30;;;1.00;;
41532;SDS011;27262;-35.248;149.138;2023-05-19T14:35:11;2.67;;;1.10;;
41532;SDS011;27262;-35.248;149.138;2023-05-19T14:37:41;1.42;;;1.33;;
41532;SDS011;27262;-35.248;149.138;2023-05-19T14:40:11;2.03;;;1.17;;
41532;SDS011;27262;-35.248;149.138;2023-05-19T14:42:42;1.52;;;1.20;;
41532;SDS011;27262;-35.248;149.138;2023-05-19T14:45:12;1.58;;;1.33;;
41532;SDS011;27262;-35.248;149.138;2023-05-19T14:47:43;1.60;;;1.33;;
41532;SDS011;27262;-35.248;149.138;2023-05-19T14:50:13;1.80;;;1.40;;
41532;SDS011;27262;-35.248;149.138;2023-05-19T14:52:44;1.08;;;0.98;;
41532;SDS011;27262;-35.248;149.138;2023-05-19T14:55:14;1.85;;;1.27;;
41532;SDS011;27262;-35.248;149.138;2023-05-19T14:57:44;1.92;;;1.65;;
41532;SDS011;27262;-35.248;149.138;2023-05-19T15:00:15;1.70;;;1.60;;
41532;SDS011;27262;-35.248;149.138;2023-05-19T15:02:45;2.30;;;1.52;;
41532;SDS011;27262;-35.248;149.138;2023-05-19T15:05:17;1.42;;;1.30;;
41532;SDS011;27262;-35.248;149.138;2023-05-19T15:07:47;1.98;;;1.50;;
41532;SDS011;27262;-35.248;149.138;2023-05-19T15:10:18;1.92;;;1.67;;
41532;SDS011;27262;-35.248;149.138;2023-05-19T15:12:48;3.03;;;1.77;;
41532;SDS011;27262;-35.248;149.138;2023-05-19T15:15:18;2.10;;;1.60;;
41532;SDS011;27262;-35.248;149.138;2023-05-19T15:17:49;1.67;;;1.50;;
41532;SDS011;27262;-35.248;149.138;2023-05-19T15:20:19;2.08;;;1.88;;
41532;SDS011;27262;-35.248;149.138;2023-05-19T15:22:49;1.70;;;1.42;;
41532;SDS011;27262;-35.248;149.138;2023-05-19T15:25:19;1.50;;;1.40;;
41532;SDS011;27262;-35.248;149.138;2023-05-19T15:27:50;1.77;;;1.40;;
41532;SDS011;27262;-35.248;149.138;2023-05-19T15:30:20;2.00;;;1.77;;
41532;SDS011;27262;-35.248;149.138;2023-05-19T15:32:50;2.03;;;1.50;;